createdAt,value
2022-12-31T00:02:18.266Z,87.90
2022-12-31T00:04:44.908Z,87.90
2022-12-31T00:07:11.507Z,87.80
2022-12-31T00:09:38.095Z,87.90
2022-12-31T00:12:04.957Z,88.00
2022-12-31T00:14:31.672Z,88.00
2022-12-31T00:16:58.351Z,88.00
2022-12-31T00:19:25.070Z,88.00
2022-12-31T00:21:51.991Z,88.00
2022-12-31T00:24:18.610Z,88.00
2022-12-31T00:26:45.205Z,88.00
2022-12-31T00:29:12.166Z,88.10
2022-12-31T00:31:39.505Z,88.20
2022-12-31T00:34:07.042Z,88.20
2022-12-31T00:36:36.116Z,88.20
2022-12-31T00:39:04.597Z,88.20
2022-12-31T00:41:31.800Z,88.20
2022-12-31T00:43:58.930Z,88.20
2022-12-31T00:46:26.354Z,88.20
2022-12-31T00:48:53.802Z,88.20
2022-12-31T00:51:22.816Z,88.10
2022-12-31T00:53:50.030Z,88.10
2022-12-31T00:56:20.289Z,88.10
2022-12-31T00:58:47.418Z,88.20
2022-12-31T01:01:27.676Z,88.10
2022-12-31T01:03:58.819Z,88.10
2022-12-31T01:06:25.995Z,88.10
2022-12-31T01:08:53.622Z,88.10
2022-12-31T01:11:22.519Z,88.70
2022-12-31T01:13:58.598Z,88.70
2022-12-31T01:16:34.535Z,87.80
2022-12-31T01:19:03.693Z,87.70
2022-12-31T01:21:31.656Z,87.70
2022-12-31T01:23:59.248Z,87.70
2022-12-31T01:26:26.987Z,87.60
2022-12-31T01:28:53.860Z,87.60
2022-12-31T01:31:22.061Z,87.60
2022-12-31T01:33:49.018Z,87.60
2022-12-31T01:36:23.562Z,87.50
2022-12-31T01:38:52.957Z,87.60
2022-12-31T01:41:25.381Z,87.50
2022-12-31T01:43:55.215Z,87.40
2022-12-31T01:46:40.404Z,87.50
2022-12-31T01:49:20.679Z,87.50
2022-12-31T01:52:07.392Z,87.50
2022-12-31T01:54:38.145Z,87.50
2022-12-31T01:57:05.255Z,87.50
2022-12-31T01:59:33.672Z,87.50
2022-12-31T02:02:01.066Z,87.50
2022-12-31T02:04:28.763Z,87.50
2022-12-31T02:07:04.745Z,87.40
2022-12-31T02:09:32.197Z,87.50
2022-12-31T02:11:58.900Z,87.50
2022-12-31T02:14:35.315Z,87.70
2022-12-31T02:17:07.777Z,87.70
2022-12-31T02:19:46.210Z,87.60
2022-12-31T02:22:22.732Z,87.60
2022-12-31T02:25:09.705Z,87.70
2022-12-31T02:27:59.077Z,87.60
2022-12-31T02:30:30.866Z,87.60
2022-12-31T02:33:21.881Z,87.60
2022-12-31T02:35:59.268Z,87.60
2022-12-31T02:38:31.254Z,87.60
2022-12-31T02:40:58.057Z,87.70
2022-12-31T02:43:25.630Z,87.70
2022-12-31T02:46:25.910Z,87.80
2022-12-31T02:49:01.588Z,87.80
2022-12-31T02:51:44.577Z,87.70
2022-12-31T02:54:29.784Z,87.70
2022-12-31T02:57:38.127Z,87.70
2022-12-31T03:00:26.220Z,87.70
2022-12-31T03:02:54.069Z,87.60
2022-12-31T03:05:24.042Z,87.60
2022-12-31T03:07:51.007Z,87.50
2022-12-31T03:10:17.844Z,87.50
2022-12-31T03:12:48.184Z,87.50
2022-12-31T03:15:35.313Z,87.50
2022-12-31T03:18:16.578Z,87.50
2022-12-31T03:21:07.910Z,87.50
2022-12-31T03:23:43.717Z,87.50
2022-12-31T03:26:12.079Z,87.50
2022-12-31T03:28:41.211Z,87.90
2022-12-31T03:31:08.082Z,88.20
2022-12-31T03:33:37.644Z,87.50
2022-12-31T03:36:06.998Z,87.40
2022-12-31T03:38:33.934Z,87.40
2022-12-31T03:41:00.554Z,87.40
2022-12-31T03:43:27.133Z,87.50
2022-12-31T03:45:55.177Z,87.40
2022-12-31T03:48:23.609Z,87.40
2022-12-31T03:50:50.980Z,87.30
2022-12-31T03:53:17.700Z,87.30
2022-12-31T03:55:44.687Z,87.30
2022-12-31T03:58:11.276Z,87.30
2022-12-31T04:00:37.944Z,87.30
2022-12-31T04:03:04.588Z,87.30
2022-12-31T04:05:31.257Z,87.30
2022-12-31T04:07:57.988Z,87.30
2022-12-31T04:10:24.641Z,87.30
2022-12-31T04:12:51.229Z,87.30
2022-12-31T04:15:19.668Z,87.30
2022-12-31T04:17:47.210Z,87.30
2022-12-31T04:20:14.611Z,87.30
2022-12-31T04:22:41.479Z,87.20
2022-12-31T04:25:11.618Z,87.20
2022-12-31T04:27:43.598Z,87.20
2022-12-31T04:30:11.848Z,87.30
2022-12-31T04:32:38.527Z,87.30
2022-12-31T04:35:05.623Z,87.30
2022-12-31T04:37:32.319Z,88.10
2022-12-31T04:40:05.110Z,87.40
2022-12-31T04:42:32.335Z,87.40
2022-12-31T04:44:58.960Z,87.30
2022-12-31T04:47:25.537Z,87.30
2022-12-31T04:49:52.161Z,87.30
2022-12-31T04:52:18.869Z,87.30
2022-12-31T04:54:45.496Z,87.40
2022-12-31T04:57:12.183Z,87.40
2022-12-31T04:59:38.797Z,87.40
2022-12-31T05:02:05.560Z,87.50
2022-12-31T05:04:32.382Z,87.50
2022-12-31T05:06:59.003Z,87.50
2022-12-31T05:09:27.422Z,87.50
2022-12-31T05:11:54.239Z,87.50
2022-12-31T05:14:20.841Z,87.50
2022-12-31T05:16:47.508Z,87.50
2022-12-31T05:19:14.161Z,87.50
2022-12-31T05:21:40.889Z,87.60
2022-12-31T05:24:07.942Z,87.60
2022-12-31T05:26:35.038Z,87.60
2022-12-31T05:29:01.685Z,87.70
2022-12-31T05:31:28.321Z,87.80
2022-12-31T05:33:54.886Z,87.90
2022-12-31T05:36:21.457Z,88.10
2022-12-31T05:38:48.060Z,88.10
2022-12-31T05:41:14.689Z,88.10
2022-12-31T05:43:41.328Z,88.10
2022-12-31T05:46:08.251Z,88.30
2022-12-31T05:48:34.872Z,88.30
2022-12-31T05:51:01.519Z,88.50
2022-12-31T05:53:28.269Z,88.70
2022-12-31T05:55:54.833Z,88.80
2022-12-31T05:58:21.427Z,88.90
2022-12-31T06:00:48.145Z,89.00
2022-12-31T06:03:14.866Z,89.00
2022-12-31T06:05:42.620Z,89.00
2022-12-31T06:08:10.932Z,89.30
2022-12-31T06:10:37.595Z,89.10
2022-12-31T06:13:04.666Z,89.10
2022-12-31T06:15:31.408Z,89.20
2022-12-31T06:17:58.087Z,89.20
2022-12-31T06:20:24.700Z,89.30
2022-12-31T06:22:51.283Z,89.30
2022-12-31T06:25:17.908Z,89.30
2022-12-31T06:27:44.596Z,89.40
2022-12-31T06:30:11.817Z,89.40
2022-12-31T06:32:39.360Z,89.50
2022-12-31T06:35:06.756Z,89.50
2022-12-31T06:37:33.371Z,89.50
2022-12-31T06:40:00.348Z,89.50
2022-12-31T06:42:33.069Z,89.60
2022-12-31T06:45:00.161Z,89.60
2022-12-31T06:47:26.797Z,89.80
2022-12-31T06:49:53.487Z,90.00
2022-12-31T06:52:20.530Z,90.00
2022-12-31T06:54:47.915Z,90.10
2022-12-31T06:57:15.064Z,90.00
2022-12-31T06:59:42.100Z,90.20
2022-12-31T07:02:14.638Z,90.10
2022-12-31T07:04:47.109Z,90.20
2022-12-31T07:07:19.943Z,90.30
2022-12-31T07:10:29.976Z,90.30
2022-12-31T07:13:02.120Z,90.40
2022-12-31T07:15:54.777Z,90.40
2022-12-31T07:18:33.660Z,90.30
2022-12-31T07:21:00.684Z,90.40
2022-12-31T07:23:27.577Z,90.40
2022-12-31T07:26:17.163Z,90.30
2022-12-31T07:29:13.880Z,90.60
2022-12-31T07:32:19.482Z,90.60
2022-12-31T07:35:04.264Z,90.50
2022-12-31T07:37:30.786Z,90.50
2022-12-31T07:40:06.111Z,90.50
2022-12-31T07:42:48.995Z,90.60
2022-12-31T07:45:23.764Z,90.60
2022-12-31T07:47:50.677Z,90.60
2022-12-31T07:50:19.050Z,90.60
2022-12-31T07:52:46.616Z,90.60
2022-12-31T07:55:13.425Z,90.50
2022-12-31T07:57:54.910Z,90.50
2022-12-31T08:00:21.852Z,90.50
2022-12-31T08:03:01.881Z,90.50
2022-12-31T08:05:39.117Z,90.50
2022-12-31T08:08:39.340Z,90.50
2022-12-31T08:11:18.879Z,90.50
2022-12-31T08:13:46.571Z,90.50
2022-12-31T08:16:14.068Z,90.40
2022-12-31T08:18:41.311Z,90.40
2022-12-31T08:21:14.219Z,90.40
2022-12-31T08:24:03.796Z,90.30
2022-12-31T08:26:55.751Z,90.20
2022-12-31T08:29:25.114Z,90.20
2022-12-31T08:32:07.616Z,90.20
2022-12-31T08:34:52.244Z,90.10
2022-12-31T08:37:36.635Z,90.10
2022-12-31T08:40:28.494Z,90.10
2022-12-31T08:43:25.628Z,90.40
2022-12-31T08:45:53.984Z,90.10
2022-12-31T08:48:26.804Z,90.00
2022-12-31T08:50:54.159Z,90.00
2022-12-31T08:53:21.536Z,90.10
2022-12-31T08:55:52.762Z,90.00
2022-12-31T08:58:43.460Z,90.00
2022-12-31T09:01:13.716Z,90.00
2022-12-31T09:04:04.782Z,90.00
2022-12-31T09:06:41.929Z,90.00
2022-12-31T09:09:27.207Z,90.00
2022-12-31T09:12:10.479Z,90.00
2022-12-31T09:15:00.565Z,90.00
2022-12-31T09:17:50.875Z,89.90
2022-12-31T09:20:42.285Z,90.00
2022-12-31T09:23:09.903Z,90.00
2022-12-31T09:25:46.786Z,90.10
2022-12-31T09:28:19.565Z,90.10
2022-12-31T09:30:57.040Z,90.10
2022-12-31T09:33:46.600Z,90.20
2022-12-31T09:36:31.802Z,90.20
2022-12-31T09:39:30.256Z,90.20
2022-12-31T09:42:04.594Z,90.10
2022-12-31T09:45:03.611Z,90.10
2022-12-31T09:47:48.429Z,90.10
2022-12-31T09:50:33.209Z,90.00
2022-12-31T09:53:18.932Z,90.00
2022-12-31T09:56:09.372Z,90.00
2022-12-31T09:59:06.310Z,90.00
2022-12-31T10:02:14.596Z,90.00
2022-12-31T10:04:52.395Z,90.00
2022-12-31T10:07:33.175Z,89.90
2022-12-31T10:10:07.380Z,90.00
2022-12-31T10:12:44.490Z,90.00
2022-12-31T10:15:34.172Z,90.00
2022-12-31T10:18:38.324Z,90.00
2022-12-31T10:21:10.680Z,89.70
2022-12-31T10:24:25.271Z,89.50
2022-12-31T10:27:02.994Z,89.30
2022-12-31T10:29:47.962Z,89.30
2022-12-31T10:32:23.717Z,89.30
2022-12-31T10:35:14.232Z,89.30
2022-12-31T10:37:52.985Z,89.30
2022-12-31T10:40:51.995Z,89.50
2022-12-31T10:43:53.002Z,89.50
2022-12-31T10:46:52.030Z,89.40
2022-12-31T10:49:46.562Z,89.30
2022-12-31T10:52:43.623Z,89.20
2022-12-31T10:55:24.833Z,89.10
2022-12-31T10:58:25.351Z,89.10
2022-12-31T11:01:19.873Z,88.90
2022-12-31T11:04:27.255Z,88.70
2022-12-31T11:07:18.303Z,88.70
2022-12-31T11:10:28.545Z,88.60
2022-12-31T11:13:00.904Z,88.70
2022-12-31T11:15:48.279Z,88.70
2022-12-31T11:18:31.989Z,89.00
2022-12-31T11:21:41.366Z,89.00
2022-12-31T11:24:22.967Z,89.00
2022-12-31T11:27:15.430Z,89.20
2022-12-31T11:30:25.362Z,89.20
2022-12-31T11:33:06.272Z,89.20
2022-12-31T11:36:00.655Z,89.20
2022-12-31T11:38:33.076Z,89.30
2022-12-31T11:41:25.930Z,89.40
2022-12-31T11:44:29.589Z,89.40
2022-12-31T11:47:16.536Z,89.50
2022-12-31T11:50:27.145Z,89.50
2022-12-31T11:53:24.269Z,89.60
2022-12-31T11:56:20.149Z,89.80
2022-12-31T11:58:53.128Z,89.80
2022-12-31T12:01:57.804Z,89.80
2022-12-31T12:04:24.617Z,89.90
2022-12-31T12:06:52.467Z,89.60
2022-12-31T12:09:34.309Z,89.50
2022-12-31T12:12:03.753Z,89.20
2022-12-31T12:14:42.378Z,89.10
2022-12-31T12:17:15.852Z,88.90
2022-12-31T12:19:45.184Z,88.80
2022-12-31T12:22:22.542Z,88.70
2022-12-31T12:25:05.345Z,88.50
2022-12-31T12:27:34.600Z,88.30
2022-12-31T12:30:30.537Z,88.20
2022-12-31T12:33:04.624Z,88.10
2022-12-31T12:35:34.189Z,88.00
2022-12-31T12:38:14.177Z,88.10
2022-12-31T12:40:41.086Z,88.10
2022-12-31T12:43:23.417Z,87.90
2022-12-31T12:45:58.858Z,87.90
2022-12-31T12:48:38.081Z,87.70
2022-12-31T12:51:47.586Z,87.50
2022-12-31T12:54:37.723Z,87.40
2022-12-31T12:57:10.363Z,87.20
2022-12-31T13:00:09.161Z,87.10
2022-12-31T13:03:09.921Z,87.10
2022-12-31T13:05:44.064Z,87.00
2022-12-31T13:08:48.116Z,86.90
2022-12-31T13:11:33.007Z,86.70
2022-12-31T13:14:33.027Z,86.60
2022-12-31T13:17:13.460Z,86.60
2022-12-31T13:19:53.364Z,86.50
2022-12-31T13:22:26.116Z,86.40
2022-12-31T13:25:40.633Z,86.40
2022-12-31T13:28:13.300Z,86.40
2022-12-31T13:30:47.143Z,86.40
2022-12-31T13:33:18.436Z,86.30
2022-12-31T13:35:50.017Z,86.40
2022-12-31T13:38:28.577Z,86.50
2022-12-31T13:41:00.803Z,86.50
2022-12-31T13:43:54.729Z,86.60
2022-12-31T13:46:58.947Z,86.60
2022-12-31T13:49:31.580Z,86.70
2022-12-31T13:52:38.851Z,86.60
2022-12-31T13:55:31.468Z,86.60
2022-12-31T13:58:01.993Z,86.70
2022-12-31T14:00:35.840Z,86.60
2022-12-31T14:03:33.175Z,86.70
2022-12-31T14:06:19.539Z,86.70
2022-12-31T14:08:46.329Z,86.60
2022-12-31T14:11:37.212Z,86.50
2022-12-31T14:14:29.975Z,86.40
2022-12-31T14:17:00.425Z,86.30
2022-12-31T14:19:31.698Z,86.20
2022-12-31T14:22:22.212Z,86.20
2022-12-31T14:24:51.053Z,86.10
2022-12-31T14:27:27.059Z,86.00
2022-12-31T14:30:01.940Z,86.00
2022-12-31T14:33:05.133Z,85.90
2022-12-31T14:36:00.437Z,85.80
2022-12-31T14:39:07.120Z,85.70
2022-12-31T14:41:53.709Z,85.80
2022-12-31T14:44:20.313Z,85.80
2022-12-31T14:46:46.896Z,85.80
2022-12-31T14:49:43.247Z,85.70
2022-12-31T14:52:27.204Z,85.70
2022-12-31T14:55:19.495Z,85.70
2022-12-31T15:00:38.293Z,85.30
2022-12-31T15:03:15.532Z,85.20
2022-12-31T15:06:01.641Z,85.00
2022-12-31T15:08:50.849Z,84.60
2022-12-31T15:11:29.440Z,84.70
2022-12-31T15:14:20.269Z,84.40
2022-12-31T15:17:02.486Z,84.20
2022-12-31T15:19:41.297Z,84.30
2022-12-31T15:22:36.320Z,84.20
2022-12-31T15:25:03.926Z,84.10
2022-12-31T15:27:37.544Z,84.10
2022-12-31T15:30:06.187Z,84.00
2022-12-31T15:32:41.374Z,83.80
2022-12-31T15:35:25.782Z,83.40
2022-12-31T15:38:17.891Z,83.10
2022-12-31T15:40:50.690Z,83.10
2022-12-31T15:43:31.192Z,82.90
2022-12-31T15:45:58.269Z,82.50
2022-12-31T15:48:32.227Z,82.00
2022-12-31T15:51:01.339Z,81.80
2022-12-31T15:53:43.260Z,81.60
2022-12-31T15:56:26.607Z,80.80
2022-12-31T15:58:58.297Z,80.20
2022-12-31T16:01:31.221Z,80.60
2022-12-31T16:04:02.176Z,79.80
2022-12-31T16:06:31.377Z,79.70
2022-12-31T16:08:58.377Z,79.70
2022-12-31T16:11:25.643Z,79.20
2022-12-31T16:13:55.116Z,79.40
2022-12-31T16:16:30.059Z,79.20
2022-12-31T16:18:57.146Z,78.90
2022-12-31T16:21:35.738Z,78.80
2022-12-31T16:24:27.153Z,78.70
2022-12-31T16:26:56.326Z,78.60
2022-12-31T16:29:24.138Z,78.20
2022-12-31T16:31:53.693Z,78.30
2022-12-31T16:34:26.090Z,77.80
2022-12-31T16:37:07.362Z,77.50
2022-12-31T16:39:38.760Z,77.70
2022-12-31T16:42:14.530Z,77.70
2022-12-31T16:44:41.685Z,77.30
2022-12-31T16:47:15.139Z,77.30
2022-12-31T16:49:42.573Z,76.80
2022-12-31T16:52:37.155Z,76.60
2022-12-31T16:55:10.215Z,76.40
2022-12-31T16:57:37.243Z,76.30
2022-12-31T17:00:07.008Z,76.90
2022-12-31T17:02:38.814Z,76.10
2022-12-31T17:05:18.936Z,76.10
2022-12-31T17:07:45.632Z,75.80
2022-12-31T17:10:19.412Z,75.80
2022-12-31T17:13:27.963Z,75.50
2022-12-31T17:15:45.308Z,75.30
2022-12-31T17:18:20.603Z,74.90
2022-12-31T17:20:49.072Z,75.30
2022-12-31T17:23:34.131Z,75.20
2022-12-31T17:26:12.302Z,75.00
2022-12-31T17:28:47.741Z,74.60
2022-12-31T17:31:33.456Z,74.70
2022-12-31T17:34:12.453Z,73.90
2022-12-31T17:36:55.359Z,73.90
2022-12-31T17:39:23.839Z,73.80
2022-12-31T17:41:52.585Z,73.80
2022-12-31T17:44:23.301Z,73.50
2022-12-31T17:46:50.482Z,73.70
2022-12-31T17:49:17.452Z,73.50
2022-12-31T17:51:47.589Z,73.30
2022-12-31T17:54:16.108Z,72.80
2022-12-31T17:56:43.780Z,72.80
2022-12-31T17:59:17.080Z,72.80
2022-12-31T18:01:43.879Z,72.80
2022-12-31T18:04:15.543Z,72.80
2022-12-31T18:06:42.668Z,72.60
2022-12-31T18:09:09.741Z,72.60
2022-12-31T18:11:38.724Z,72.10
2022-12-31T18:14:05.300Z,72.30
2022-12-31T18:16:31.957Z,72.20
2022-12-31T18:19:00.720Z,72.20
2022-12-31T18:21:32.290Z,72.00
2022-12-31T18:26:27.828Z,71.80
2022-12-31T18:28:54.633Z,71.70
2022-12-31T18:31:27.576Z,71.80
2022-12-31T18:33:56.526Z,71.60
2022-12-31T18:36:24.363Z,71.60
2022-12-31T18:38:51.268Z,71.70
2022-12-31T18:41:21.281Z,71.40
2022-12-31T18:43:48.995Z,71.40
2022-12-31T18:46:19.687Z,71.50
2022-12-31T18:48:46.431Z,71.30
2022-12-31T18:51:19.241Z,71.20
2022-12-31T18:53:46.128Z,70.90
2022-12-31T18:56:15.688Z,70.40
2022-12-31T18:58:45.493Z,70.30
2022-12-31T19:01:38.500Z,70.20
2022-12-31T19:04:18.690Z,69.90
2022-12-31T19:06:48.840Z,70.00
2022-12-31T19:09:43.462Z,70.20
2022-12-31T19:12:03.019Z,69.90
2022-12-31T19:14:29.704Z,69.40
2022-12-31T19:16:58.460Z,69.80
2022-12-31T19:19:25.460Z,69.30
2022-12-31T19:21:52.060Z,69.90
2022-12-31T19:24:26.936Z,69.00
2022-12-31T19:26:54.559Z,68.90
2022-12-31T19:29:23.720Z,68.80
2022-12-31T19:31:50.596Z,68.50
2022-12-31T19:34:17.379Z,68.10
2022-12-31T19:36:44.486Z,67.90
2022-12-31T19:39:19.299Z,68.20
2022-12-31T19:41:50.135Z,68.20
2022-12-31T19:44:21.219Z,68.90
2022-12-31T19:46:49.150Z,67.50
2022-12-31T19:49:15.755Z,66.90
2022-12-31T19:51:42.392Z,67.30
2022-12-31T19:54:09.964Z,67.40
2022-12-31T19:56:36.655Z,67.50
2022-12-31T19:59:08.385Z,67.50
2022-12-31T20:01:35.135Z,66.70
2022-12-31T20:04:01.861Z,66.70
2022-12-31T20:06:28.531Z,67.00
2022-12-31T20:08:55.148Z,67.20
2022-12-31T20:11:23.639Z,66.70
2022-12-31T20:13:52.273Z,66.60
2022-12-31T20:16:21.720Z,66.90
2022-12-31T20:18:51.272Z,67.00
2022-12-31T20:21:24.692Z,67.00
2022-12-31T20:23:52.877Z,66.40
2022-12-31T20:26:22.050Z,66.70
2022-12-31T20:29:03.365Z,66.30
2022-12-31T20:31:32.018Z,66.20
2022-12-31T20:34:04.138Z,66.30
2022-12-31T20:39:16.844Z,65.90
2022-12-31T20:41:43.744Z,65.50
2022-12-31T20:44:27.326Z,65.80
2022-12-31T20:46:54.470Z,65.70
2022-12-31T20:49:52.256Z,65.70
2022-12-31T20:52:14.985Z,65.40
2022-12-31T20:54:42.062Z,65.50
2022-12-31T20:57:33.491Z,65.60
2022-12-31T21:00:01.163Z,65.90
2022-12-31T21:02:41.026Z,66.10
2022-12-31T21:05:15.171Z,65.60
2022-12-31T21:07:47.541Z,65.70
2022-12-31T21:10:15.233Z,65.80
2022-12-31T21:12:45.815Z,66.10
2022-12-31T21:15:13.608Z,65.80
2022-12-31T21:17:43.707Z,65.90
2022-12-31T21:20:11.200Z,65.60
2022-12-31T21:26:34.810Z,65.40
2022-12-31T21:29:34.248Z,65.60
2022-12-31T21:32:03.894Z,65.70
2022-12-31T21:35:00.389Z,65.40
2022-12-31T21:37:58.629Z,65.40
2022-12-31T21:40:37.061Z,65.60
2022-12-31T21:43:05.162Z,65.70
2022-12-31T21:45:33.105Z,65.80
2022-12-31T21:48:19.082Z,65.70
2022-12-31T21:50:53.045Z,65.70
2022-12-31T21:53:32.167Z,65.70
2022-12-31T21:59:17.777Z,66.00
2022-12-31T22:02:06.374Z,66.00
2022-12-31T22:05:01.605Z,66.00
2022-12-31T22:07:26.059Z,66.00
2022-12-31T22:09:54.154Z,65.90
2022-12-31T22:12:21.258Z,65.40
2022-12-31T22:15:14.502Z,65.20
2022-12-31T22:17:39.853Z,65.20
2022-12-31T22:22:56.618Z,65.40
2022-12-31T22:25:28.059Z,65.70
2022-12-31T22:30:41.963Z,65.40
2022-12-31T22:33:10.716Z,65.00
2022-12-31T22:35:39.350Z,64.50
2022-12-31T22:38:12.956Z,65.00
2022-12-31T22:40:39.582Z,65.20
2022-12-31T22:44:08.051Z,64.80
2022-12-31T22:46:37.635Z,64.70
2022-12-31T22:49:07.482Z,65.50
2022-12-31T22:51:56.361Z,64.50
2022-12-31T22:54:51.106Z,64.40
2022-12-31T22:57:26.584Z,64.30
2022-12-31T23:03:03.545Z,64.30
2022-12-31T23:05:37.818Z,63.70
2022-12-31T23:08:11.858Z,64.20
2022-12-31T23:10:59.884Z,64.00
2022-12-31T23:14:00.128Z,64.10
2022-12-31T23:16:47.724Z,64.40
2022-12-31T23:19:44.996Z,64.50
2022-12-31T23:22:30.447Z,64.10
2022-12-31T23:24:59.185Z,64.00
2022-12-31T23:27:36.388Z,64.50
2022-12-31T23:30:05.413Z,64.30
2022-12-31T23:32:32.215Z,64.30
2022-12-31T23:34:58.903Z,64.30
2022-12-31T23:37:28.035Z,64.40
2022-12-31T23:39:54.689Z,64.70
2022-12-31T23:42:22.730Z,64.60
2022-12-31T23:44:49.475Z,64.50
2022-12-31T23:47:27.429Z,64.60
2022-12-31T23:50:06.381Z,64.60
2022-12-31T23:52:38.164Z,64.60
2022-12-31T23:55:11.868Z,64.80
2022-12-31T23:57:41.528Z,64.90
